sensor_id;sensor_type;location;lat;lon;timestamp;pressure;altitude;pressure_sealevel;temperature;humidity
28606;BME280;46498;49.968;7.754;2023-02-03T00:02:45;98126.00;;;5.38;100.00
28606;BME280;46498;49.968;7.754;2023-02-03T00:07:46;98119.00;;;5.37;100.00
28606;BME280;46498;49.968;7.754;2023-02-03T00:12:49;98111.00;;;5.37;100.00
28606;BME280;46498;49.968;7.754;2023-02-03T00:17:52;98091.00;;;5.36;100.00
28606;BME280;46498;49.968;7.754;2023-02-03T00:22:52;98078.00;;;5.45;100.00
28606;BME280;46498;49.968;7.754;2023-02-03T00:27:53;98095.00;;;5.42;100.00
28606;BME280;46498;49.968;7.754;2023-02-03T00:32:54;98108.00;;;5.45;100.00
28606;BME280;46498;49.968;7.754;2023-02-03T00:37:56;98109.00;;;5.51;100.00
28606;BME280;46498;49.968;7.754;2023-02-03T00:42:57;98080.00;;;5.43;100.00
28606;BME280;46498;49.968;7.754;2023-02-03T00:47:58;98101.00;;;5.44;100.00
28606;BME280;46498;49.968;7.754;2023-02-03T00:52:58;98101.00;;;5.44;100.00
28606;BME280;46498;49.968;7.754;2023-02-03T00:57:59;98095.00;;;5.42;100.00
28606;BME280;46498;49.968;7.754;2023-02-03T01:03:00;98085.00;;;5.42;100.00
28606;BME280;46498;49.968;7.754;2023-02-03T01:08:02;98082.00;;;5.44;100.00
28606;BME280;46498;49.968;7.754;2023-02-03T01:13:03;98049.00;;;5.42;100.00
28606;BME280;46498;49.968;7.754;2023-02-03T01:18:04;98028.00;;;5.37;100.00
28606;BME280;46498;49.968;7.754;2023-02-03T01:23:04;98021.00;;;5.33;100.00
28606;BME280;46498;49.968;7.754;2023-02-03T01:28:05;98036.00;;;5.28;100.00
28606;BME280;46498;49.968;7.754;2023-02-03T01:33:06;98046.00;;;5.25;100.00
28606;BME280;46498;49.968;7.754;2023-02-03T01:38:07;98037.00;;;5.28;100.00
28606;BME280;46498;49.968;7.754;2023-02-03T01:43:09;98032.00;;;5.34;100.00
28606;BME280;46498;49.968;7.754;2023-02-03T01:48:10;98035.00;;;5.28;100.00
28606;BME280;46498;49.968;7.754;2023-02-03T01:53:11;98022.00;;;5.32;100.00
28606;BME280;46498;49.968;7.754;2023-02-03T01:58:25;98024.00;;;5.35;100.00
28606;BME280;46498;49.968;7.754;2023-02-03T02:03:39;98010.00;;;5.38;100.00
28606;BME280;46498;49.968;7.754;2023-02-03T02:08:45;98006.00;;;5.42;100.00
28606;BME280;46498;49.968;7.754;2023-02-03T02:13:49;98013.00;;;5.44;100.00
28606;BME280;46498;49.968;7.754;2023-02-03T02:19:57;98018.00;;;5.46;100.00
28606;BME280;46498;49.968;7.754;2023-02-03T02:32:17;98022.00;;;5.43;100.00
28606;BME280;46498;49.968;7.754;2023-02-03T02:38:14;98039.00;;;5.55;100.00
28606;BME280;46498;49.968;7.754;2023-02-03T02:43:27;98038.00;;;5.62;100.00
28606;BME280;46498;49.968;7.754;2023-02-03T02:48:54;98026.00;;;5.62;100.00
28606;BME280;46498;49.968;7.754;2023-02-03T02:54:01;98043.00;;;5.62;100.00
28606;BME280;46498;49.968;7.754;2023-02-03T02:59:05;98054.00;;;5.66;100.00
28606;BME280;46498;49.968;7.754;2023-02-03T03:04:09;98065.00;;;5.62;100.00
28606;BME280;46498;49.968;7.754;2023-02-03T03:09:21;98061.00;;;5.60;100.00
28606;BME280;46498;49.968;7.754;2023-02-03T03:14:28;98060.00;;;5.62;100.00
28606;BME280;46498;49.968;7.754;2023-02-03T03:19:34;98044.00;;;5.61;100.00
28606;BME280;46498;49.968;7.754;2023-02-03T03:24:40;98035.00;;;5.64;100.00
28606;BME280;46498;49.968;7.754;2023-02-03T03:29:52;98021.00;;;5.62;100.00
28606;BME280;46498;49.968;7.754;2023-02-03T03:34:54;97992.00;;;5.62;100.00
28606;BME280;46498;49.968;7.754;2023-02-03T03:39:57;97992.00;;;5.66;100.00
28606;BME280;46498;49.968;7.754;2023-02-03T03:46:22;98009.00;;;5.69;100.00
28606;BME280;46498;49.968;7.754;2023-02-03T03:51:36;98022.00;;;5.69;100.00
28606;BME280;46498;49.968;7.754;2023-02-03T03:56:47;98043.00;;;5.70;100.00
28606;BME280;46498;49.968;7.754;2023-02-03T04:01:50;98050.00;;;5.66;100.00
28606;BME280;46498;49.968;7.754;2023-02-03T04:06:52;98037.00;;;5.55;100.00
28606;BME280;46498;49.968;7.754;2023-02-03T04:11:54;98019.00;;;5.53;100.00
28606;BME280;46498;49.968;7.754;2023-02-03T04:17:01;98036.00;;;5.45;100.00
28606;BME280;46498;49.968;7.754;2023-02-03T04:22:02;98041.00;;;5.40;100.00
28606;BME280;46498;49.968;7.754;2023-02-03T04:27:02;98038.00;;;5.38;100.00
28606;BME280;46498;49.968;7.754;2023-02-03T04:32:05;98035.00;;;5.33;100.00
28606;BME280;46498;49.968;7.754;2023-02-03T04:37:07;98034.00;;;5.29;100.00
28606;BME280;46498;49.968;7.754;2023-02-03T04:42:07;98031.00;;;5.27;100.00
28606;BME280;46498;49.968;7.754;2023-02-03T04:47:08;98014.00;;;5.27;100.00
28606;BME280;46498;49.968;7.754;2023-02-03T04:52:09;98002.00;;;5.29;100.00
28606;BME280;46498;49.968;7.754;2023-02-03T04:57:10;97998.00;;;5.30;100.00
28606;BME280;46498;49.968;7.754;2023-02-03T05:02:11;98015.00;;;5.34;100.00
28606;BME280;46498;49.968;7.754;2023-02-03T05:07:12;98013.00;;;5.44;100.00
28606;BME280;46498;49.968;7.754;2023-02-03T05:12:13;98023.00;;;5.46;100.00
28606;BME280;46498;49.968;7.754;2023-02-03T05:17:14;97995.00;;;5.47;100.00
28606;BME280;46498;49.968;7.754;2023-02-03T05:22:15;97991.00;;;5.46;100.00
28606;BME280;46498;49.968;7.754;2023-02-03T05:27:15;97988.00;;;5.48;100.00
28606;BME280;46498;49.968;7.754;2023-02-03T05:32:16;98003.00;;;5.53;100.00
28606;BME280;46498;49.968;7.754;2023-02-03T05:37:17;98000.00;;;5.50;100.00
28606;BME280;46498;49.968;7.754;2023-02-03T05:42:18;97993.00;;;5.51;100.00
28606;BME280;46498;49.968;7.754;2023-02-03T05:47:19;97992.00;;;5.45;100.00
28606;BME280;46498;49.968;7.754;2023-02-03T05:52:19;98009.00;;;5.51;100.00
28606;BME280;46498;49.968;7.754;2023-02-03T05:57:20;97999.00;;;5.46;100.00
28606;BME280;46498;49.968;7.754;2023-02-03T06:02:21;97991.00;;;5.51;100.00
28606;BME280;46498;49.968;7.754;2023-02-03T06:07:22;97991.00;;;5.48;100.00
28606;BME280;46498;49.968;7.754;2023-02-03T06:12:23;97980.00;;;5.51;100.00
28606;BME280;46498;49.968;7.754;2023-02-03T06:17:23;97981.00;;;5.56;100.00
28606;BME280;46498;49.968;7.754;2023-02-03T06:22:24;97980.00;;;5.57;100.00
28606;BME280;46498;49.968;7.754;2023-02-03T06:27:25;97991.00;;;5.53;100.00
28606;BME280;46498;49.968;7.754;2023-02-03T06:32:26;97973.00;;;5.59;100.00
28606;BME280;46498;49.968;7.754;2023-02-03T06:37:27;97985.00;;;5.56;100.00
28606;BME280;46498;49.968;7.754;2023-02-03T06:42:28;97985.00;;;5.58;100.00
28606;BME280;46498;49.968;7.754;2023-02-03T06:47:29;97992.00;;;5.59;100.00
28606;BME280;46498;49.968;7.754;2023-02-03T06:52:29;97988.00;;;5.61;100.00
28606;BME280;46498;49.968;7.754;2023-02-03T06:57:31;98002.00;;;5.58;100.00
28606;BME280;46498;49.968;7.754;2023-02-03T07:02:32;98000.00;;;5.59;100.00
28606;BME280;46498;49.968;7.754;2023-02-03T07:07:33;98011.00;;;5.59;100.00
28606;BME280;46498;49.968;7.754;2023-02-03T07:12:34;98035.00;;;5.57;100.00
28606;BME280;46498;49.968;7.754;2023-02-03T07:17:36;98032.00;;;5.62;100.00
28606;BME280;46498;49.968;7.754;2023-02-03T07:22:37;98051.00;;;5.65;100.00
28606;BME280;46498;49.968;7.754;2023-02-03T07:27:40;98028.00;;;5.63;100.00
28606;BME280;46498;49.968;7.754;2023-02-03T07:32:45;98031.00;;;5.58;100.00
28606;BME280;46498;49.968;7.754;2023-02-03T07:37:47;98038.00;;;5.66;100.00
28606;BME280;46498;49.968;7.754;2023-02-03T07:42:48;98060.00;;;5.73;100.00
28606;BME280;46498;49.968;7.754;2023-02-03T07:47:50;98032.00;;;5.76;100.00
28606;BME280;46498;49.968;7.754;2023-02-03T07:52:50;98016.00;;;5.82;100.00
28606;BME280;46498;49.968;7.754;2023-02-03T07:57:52;98009.00;;;5.78;100.00
28606;BME280;46498;49.968;7.754;2023-02-03T08:02:53;98032.00;;;5.80;100.00
28606;BME280;46498;49.968;7.754;2023-02-03T08:07:55;98032.00;;;5.86;100.00
28606;BME280;46498;49.968;7.754;2023-02-03T08:12:56;98049.00;;;5.92;100.00
28606;BME280;46498;49.968;7.754;2023-02-03T08:17:57;98060.00;;;5.98;100.00
28606;BME280;46498;49.968;7.754;2023-02-03T08:22:58;98053.00;;;6.01;100.00
28606;BME280;46498;49.968;7.754;2023-02-03T08:27:59;98043.00;;;6.00;100.00
28606;BME280;46498;49.968;7.754;2023-02-03T08:33:00;98038.00;;;5.95;100.00
28606;BME280;46498;49.968;7.754;2023-02-03T08:38:01;98033.00;;;6.04;100.00
28606;BME280;46498;49.968;7.754;2023-02-03T08:43:01;98020.00;;;6.01;100.00
28606;BME280;46498;49.968;7.754;2023-02-03T08:48:03;98027.00;;;6.02;100.00
28606;BME280;46498;49.968;7.754;2023-02-03T08:53:04;98031.00;;;6.06;100.00
28606;BME280;46498;49.968;7.754;2023-02-03T08:58:04;98026.00;;;6.09;100.00
28606;BME280;46498;49.968;7.754;2023-02-03T09:03:05;98044.00;;;6.19;100.00
28606;BME280;46498;49.968;7.754;2023-02-03T09:08:06;98028.00;;;6.12;100.00
28606;BME280;46498;49.968;7.754;2023-02-03T09:13:07;98038.00;;;6.16;100.00
28606;BME280;46498;49.968;7.754;2023-02-03T09:18:08;98043.00;;;6.15;100.00
28606;BME280;46498;49.968;7.754;2023-02-03T09:23:09;98045.00;;;6.15;100.00
28606;BME280;46498;49.968;7.754;2023-02-03T09:28:09;98011.00;;;6.14;100.00
28606;BME280;46498;49.968;7.754;2023-02-03T09:33:10;98012.00;;;6.12;100.00
28606;BME280;46498;49.968;7.754;2023-02-03T09:38:11;98012.00;;;6.18;100.00
28606;BME280;46498;49.968;7.754;2023-02-03T09:43:50;98015.00;;;6.25;100.00
28606;BME280;46498;49.968;7.754;2023-02-03T09:48:59;98020.00;;;6.26;100.00
28606;BME280;46498;49.968;7.754;2023-02-03T09:54:06;98028.00;;;6.30;100.00
28606;BME280;46498;49.968;7.754;2023-02-03T09:59:13;98032.00;;;6.35;100.00
28606;BME280;46498;49.968;7.754;2023-02-03T10:04:27;98008.00;;;6.36;100.00
28606;BME280;46498;49.968;7.754;2023-02-03T10:11:31;98003.00;;;6.44;100.00
28606;BME280;46498;49.968;7.754;2023-02-03T10:16:53;97999.00;;;6.48;100.00
28606;BME280;46498;49.968;7.754;2023-02-03T10:21:59;97994.00;;;6.53;100.00
28606;BME280;46498;49.968;7.754;2023-02-03T10:27:01;97989.00;;;6.56;100.00
28606;BME280;46498;49.968;7.754;2023-02-03T10:32:07;97983.00;;;6.60;100.00
28606;BME280;46498;49.968;7.754;2023-02-03T10:39:46;97987.00;;;6.67;100.00
28606;BME280;46498;49.968;7.754;2023-02-03T10:44:57;98003.00;;;6.69;100.00
28606;BME280;46498;49.968;7.754;2023-02-03T10:50:03;97989.00;;;6.70;100.00
28606;BME280;46498;49.968;7.754;2023-02-03T10:55:28;97995.00;;;6.65;100.00
28606;BME280;46498;49.968;7.754;2023-02-03T11:00:31;98012.00;;;6.71;100.00
28606;BME280;46498;49.968;7.754;2023-02-03T11:05:34;97996.00;;;6.71;100.00
28606;BME280;46498;49.968;7.754;2023-02-03T11:10:36;98004.00;;;6.73;100.00
28606;BME280;46498;49.968;7.754;2023-02-03T11:15:52;98003.00;;;6.64;100.00
28606;BME280;46498;49.968;7.754;2023-02-03T11:20:55;98012.00;;;6.59;100.00
28606;BME280;46498;49.968;7.754;2023-02-03T11:25:57;98031.00;;;6.57;100.00
28606;BME280;46498;49.968;7.754;2023-02-03T11:30:58;98027.00;;;6.42;100.00
28606;BME280;46498;49.968;7.754;2023-02-03T11:36:01;98029.00;;;6.37;100.00
28606;BME280;46498;49.968;7.754;2023-02-03T11:41:02;98021.00;;;6.20;100.00
28606;BME280;46498;49.968;7.754;2023-02-03T11:46:04;97996.00;;;6.08;100.00
28606;BME280;46498;49.968;7.754;2023-02-03T11:51:37;97984.00;;;6.10;100.00
28606;BME280;46498;49.968;7.754;2023-02-03T11:59:42;97980.00;;;6.15;100.00
28606;BME280;46498;49.968;7.754;2023-02-03T12:05:16;97952.00;;;6.35;100.00
28606;BME280;46498;49.968;7.754;2023-02-03T12:11:06;97954.00;;;6.50;100.00
28606;BME280;46498;49.968;7.754;2023-02-03T12:16:28;97958.00;;;6.51;100.00
28606;BME280;46498;49.968;7.754;2023-02-03T12:21:43;97955.00;;;6.73;100.00
28606;BME280;46498;49.968;7.754;2023-02-03T12:27:02;97938.00;;;6.67;100.00
28606;BME280;46498;49.968;7.754;2023-02-03T12:32:31;97951.00;;;6.56;100.00
28606;BME280;46498;49.968;7.754;2023-02-03T12:44:57;97940.00;;;6.58;100.00
28606;BME280;46498;49.968;7.754;2023-02-03T12:50:20;97929.00;;;6.68;100.00
28606;BME280;46498;49.968;7.754;2023-02-03T12:55:44;97939.00;;;6.76;100.00
28606;BME280;46498;49.968;7.754;2023-02-03T13:00:55;97941.00;;;6.76;100.00
28606;BME280;46498;49.968;7.754;2023-02-03T13:06:21;97941.00;;;6.81;100.00
28606;BME280;46498;49.968;7.754;2023-02-03T13:12:50;97950.00;;;6.89;100.00
28606;BME280;46498;49.968;7.754;2023-02-03T13:18:04;97958.00;;;6.87;100.00
28606;BME280;46498;49.968;7.754;2023-02-03T13:23:12;97940.00;;;6.75;100.00
28606;BME280;46498;49.968;7.754;2023-02-03T13:45:37;97900.00;;;6.50;100.00
28606;BME280;46498;49.968;7.754;2023-02-03T13:50:39;97923.00;;;6.53;100.00
28606;BME280;46498;49.968;7.754;2023-02-03T13:55:43;97920.00;;;6.54;100.00
28606;BME280;46498;49.968;7.754;2023-02-03T14:01:33;97921.00;;;6.50;100.00
28606;BME280;46498;49.968;7.754;2023-02-03T14:06:56;97926.00;;;6.46;100.00
28606;BME280;46498;49.968;7.754;2023-02-03T14:15:30;97923.00;;;6.47;100.00
28606;BME280;46498;49.968;7.754;2023-02-03T14:20:37;97922.00;;;6.49;100.00
28606;BME280;46498;49.968;7.754;2023-02-03T14:25:47;97911.00;;;6.53;100.00
28606;BME280;46498;49.968;7.754;2023-02-03T14:32:51;97931.00;;;6.49;100.00
28606;BME280;46498;49.968;7.754;2023-02-03T14:37:59;97917.00;;;6.57;100.00
28606;BME280;46498;49.968;7.754;2023-02-03T14:53:32;97928.00;;;6.49;100.00
28606;BME280;46498;49.968;7.754;2023-02-03T14:58:45;97951.00;;;6.50;100.00
28606;BME280;46498;49.968;7.754;2023-02-03T15:09:44;97950.00;;;6.61;100.00
28606;BME280;46498;49.968;7.754;2023-02-03T15:14:45;97954.00;;;6.60;100.00
28606;BME280;46498;49.968;7.754;2023-02-03T15:19:46;97954.00;;;6.50;100.00
28606;BME280;46498;49.968;7.754;2023-02-03T15:24:47;97959.00;;;6.58;100.00
28606;BME280;46498;49.968;7.754;2023-02-03T15:29:50;97956.00;;;6.53;100.00
28606;BME280;46498;49.968;7.754;2023-02-03T15:34:52;97964.00;;;6.60;100.00
28606;BME280;46498;49.968;7.754;2023-02-03T15:40:05;97978.00;;;6.62;100.00
28606;BME280;46498;49.968;7.754;2023-02-03T15:45:34;97974.00;;;6.64;100.00
28606;BME280;46498;49.968;7.754;2023-02-03T15:50:46;97966.00;;;6.68;100.00
28606;BME280;46498;49.968;7.754;2023-02-03T15:55:53;97952.00;;;6.65;100.00
28606;BME280;46498;49.968;7.754;2023-02-03T16:00:58;97944.00;;;6.66;100.00
28606;BME280;46498;49.968;7.754;2023-02-03T16:07:51;97957.00;;;6.72;100.00
28606;BME280;46498;49.968;7.754;2023-02-03T16:12:52;97981.00;;;6.70;100.00
28606;BME280;46498;49.968;7.754;2023-02-03T16:17:54;97990.00;;;6.72;100.00
28606;BME280;46498;49.968;7.754;2023-02-03T16:23:18;97985.00;;;6.78;100.00
28606;BME280;46498;49.968;7.754;2023-02-03T16:28:20;97998.00;;;6.76;100.00
28606;BME280;46498;49.968;7.754;2023-02-03T16:33:44;98004.00;;;6.74;100.00
28606;BME280;46498;49.968;7.754;2023-02-03T16:39:08;98026.00;;;6.80;100.00
28606;BME280;46498;49.968;7.754;2023-02-03T16:44:28;98021.00;;;6.86;100.00
28606;BME280;46498;49.968;7.754;2023-02-03T16:49:48;98024.00;;;6.84;100.00
28606;BME280;46498;49.968;7.754;2023-02-03T16:55:07;98031.00;;;6.82;100.00
28606;BME280;46498;49.968;7.754;2023-02-03T17:00:11;98047.00;;;6.91;100.00
28606;BME280;46498;49.968;7.754;2023-02-03T17:05:13;98039.00;;;6.86;100.00
28606;BME280;46498;49.968;7.754;2023-02-03T17:10:14;98038.00;;;6.89;100.00
28606;BME280;46498;49.968;7.754;2023-02-03T17:15:15;98047.00;;;6.85;100.00
28606;BME280;46498;49.968;7.754;2023-02-03T17:20:16;98047.00;;;6.85;100.00
28606;BME280;46498;49.968;7.754;2023-02-03T17:25:17;98053.00;;;6.80;100.00
28606;BME280;46498;49.968;7.754;2023-02-03T17:30:18;98054.00;;;6.86;100.00
28606;BME280;46498;49.968;7.754;2023-02-03T17:35:18;98053.00;;;6.80;100.00
28606;BME280;46498;49.968;7.754;2023-02-03T17:40:20;98057.00;;;6.84;100.00
28606;BME280;46498;49.968;7.754;2023-02-03T17:45:39;98049.00;;;6.86;100.00
28606;BME280;46498;49.968;7.754;2023-02-03T17:51:59;98052.00;;;6.91;100.00
28606;BME280;46498;49.968;7.754;2023-02-03T17:57:19;98064.00;;;6.92;100.00
28606;BME280;46498;49.968;7.754;2023-02-03T18:02:20;98065.00;;;6.89;100.00
28606;BME280;46498;49.968;7.754;2023-02-03T18:07:22;98063.00;;;6.96;100.00
28606;BME280;46498;49.968;7.754;2023-02-03T18:12:22;98063.00;;;6.96;100.00
28606;BME280;46498;49.968;7.754;2023-02-03T18:17:23;98071.00;;;6.98;100.00
28606;BME280;46498;49.968;7.754;2023-02-03T18:22:24;98084.00;;;6.93;100.00
28606;BME280;46498;49.968;7.754;2023-02-03T18:27:27;98082.00;;;6.90;100.00
28606;BME280;46498;49.968;7.754;2023-02-03T18:32:32;98088.00;;;6.90;100.00
28606;BME280;46498;49.968;7.754;2023-02-03T18:37:33;98098.00;;;6.88;100.00
28606;BME280;46498;49.968;7.754;2023-02-03T18:42:33;98098.00;;;6.86;100.00
28606;BME280;46498;49.968;7.754;2023-02-03T18:47:35;98104.00;;;6.78;100.00
28606;BME280;46498;49.968;7.754;2023-02-03T18:52:37;98113.00;;;6.68;100.00
28606;BME280;46498;49.968;7.754;2023-02-03T18:57:38;98112.00;;;6.56;100.00
28606;BME280;46498;49.968;7.754;2023-02-03T19:02:39;98130.00;;;6.52;100.00
28606;BME280;46498;49.968;7.754;2023-02-03T19:07:41;98135.00;;;6.44;100.00
28606;BME280;46498;49.968;7.754;2023-02-03T19:12:43;98127.00;;;6.37;100.00
28606;BME280;46498;49.968;7.754;2023-02-03T19:17:44;98148.00;;;6.35;100.00
28606;BME280;46498;49.968;7.754;2023-02-03T19:22:45;98158.00;;;6.30;100.00
28606;BME280;46498;49.968;7.754;2023-02-03T19:27:47;98162.00;;;6.24;100.00
28606;BME280;46498;49.968;7.754;2023-02-03T19:32:47;98182.00;;;6.24;100.00
28606;BME280;46498;49.968;7.754;2023-02-03T19:37:48;98181.00;;;6.22;100.00
28606;BME280;46498;49.968;7.754;2023-02-03T19:42:49;98184.00;;;6.21;100.00
28606;BME280;46498;49.968;7.754;2023-02-03T19:47:50;98198.00;;;6.12;100.00
28606;BME280;46498;49.968;7.754;2023-02-03T19:52:51;98197.00;;;6.15;100.00
28606;BME280;46498;49.968;7.754;2023-02-03T19:57:52;98206.00;;;6.13;100.00
28606;BME280;46498;49.968;7.754;2023-02-03T20:02:53;98207.00;;;6.15;100.00
28606;BME280;46498;49.968;7.754;2023-02-03T20:07:54;98205.00;;;6.11;100.00
28606;BME280;46498;49.968;7.754;2023-02-03T20:12:55;98221.00;;;6.11;100.00
28606;BME280;46498;49.968;7.754;2023-02-03T20:17:56;98216.00;;;6.15;100.00
28606;BME280;46498;49.968;7.754;2023-02-03T20:22:57;98216.00;;;6.11;100.00
28606;BME280;46498;49.968;7.754;2023-02-03T20:27:58;98226.00;;;6.13;100.00
28606;BME280;46498;49.968;7.754;2023-02-03T20:33:02;98218.00;;;6.13;100.00
28606;BME280;46498;49.968;7.754;2023-02-03T20:38:04;98209.00;;;6.02;100.00
28606;BME280;46498;49.968;7.754;2023-02-03T20:43:18;98209.00;;;6.07;100.00
28606;BME280;46498;49.968;7.754;2023-02-03T20:48:21;98218.00;;;6.09;100.00
28606;BME280;46498;49.968;7.754;2023-02-03T20:53:24;98223.00;;;6.31;100.00
28606;BME280;46498;49.968;7.754;2023-02-03T20:58:28;98221.00;;;6.22;100.00
28606;BME280;46498;49.968;7.754;2023-02-03T21:03:31;98222.00;;;6.19;100.00
28606;BME280;46498;49.968;7.754;2023-02-03T21:08:50;98231.00;;;6.12;100.00
28606;BME280;46498;49.968;7.754;2023-02-03T21:13:51;98230.00;;;6.19;100.00
28606;BME280;46498;49.968;7.754;2023-02-03T21:18:54;98232.00;;;6.22;100.00
28606;BME280;46498;49.968;7.754;2023-02-03T21:23:56;98239.00;;;6.18;100.00
28606;BME280;46498;49.968;7.754;2023-02-03T21:28:59;98258.00;;;6.19;100.00
28606;BME280;46498;49.968;7.754;2023-02-03T21:34:02;98247.00;;;6.26;100.00
28606;BME280;46498;49.968;7.754;2023-02-03T21:39:22;98244.00;;;6.28;100.00
28606;BME280;46498;49.968;7.754;2023-02-03T21:44:31;98248.00;;;6.25;100.00
28606;BME280;46498;49.968;7.754;2023-02-03T21:49:34;98254.00;;;6.25;100.00
28606;BME280;46498;49.968;7.754;2023-02-03T21:54:34;98254.00;;;6.27;100.00
28606;BME280;46498;49.968;7.754;2023-02-03T21:59:41;98252.00;;;6.22;100.00
28606;BME280;46498;49.968;7.754;2023-02-03T22:04:46;98267.00;;;6.20;100.00
28606;BME280;46498;49.968;7.754;2023-02-03T22:09:46;98267.00;;;6.22;100.00
28606;BME280;46498;49.968;7.754;2023-02-03T22:14:49;98274.00;;;6.14;100.00
28606;BME280;46498;49.968;7.754;2023-02-03T22:19:50;98271.00;;;6.12;100.00
28606;BME280;46498;49.968;7.754;2023-02-03T22:24:51;98264.00;;;6.13;100.00
28606;BME280;46498;49.968;7.754;2023-02-03T22:29:52;98271.00;;;6.12;100.00
28606;BME280;46498;49.968;7.754;2023-02-03T22:34:55;98273.00;;;6.15;100.00
28606;BME280;46498;49.968;7.754;2023-02-03T22:39:56;98283.00;;;6.13;100.00
28606;BME280;46498;49.968;7.754;2023-02-03T22:44:58;98281.00;;;6.10;100.00
28606;BME280;46498;49.968;7.754;2023-02-03T22:49:59;98281.00;;;6.13;100.00
28606;BME280;46498;49.968;7.754;2023-02-03T22:54:59;98280.00;;;6.09;100.00
28606;BME280;46498;49.968;7.754;2023-02-03T23:00:00;98292.00;;;6.10;100.00
28606;BME280;46498;49.968;7.754;2023-02-03T23:05:01;98284.00;;;6.05;100.00
28606;BME280;46498;49.968;7.754;2023-02-03T23:10:03;98288.00;;;6.06;100.00
28606;BME280;46498;49.968;7.754;2023-02-03T23:15:05;98290.00;;;6.05;100.00
28606;BME280;46498;49.968;7.754;2023-02-03T23:20:07;98289.00;;;5.99;100.00
28606;BME280;46498;49.968;7.754;2023-02-03T23:25:10;98301.00;;;5.92;100.00
28606;BME280;46498;49.968;7.754;2023-02-03T23:30:12;98325.00;;;5.92;100.00
28606;BME280;46498;49.968;7.754;2023-02-03T23:35:13;98309.00;;;5.90;100.00
28606;BME280;46498;49.968;7.754;2023-02-03T23:40:32;98325.00;;;5.88;100.00
28606;BME280;46498;49.968;7.754;2023-02-03T23:45:33;98343.00;;;5.91;100.00
28606;BME280;46498;49.968;7.754;2023-02-03T23:50:34;98337.00;;;5.91;100.00
28606;BME280;46498;49.968;7.754;2023-02-03T23:55:35;98337.00;;;5.87;100.00
